Hlavní strana
METAR-TAF:

METAR-TAF

Letiště :

Effingham County Memorial Airport

Effingham, Illinois, Spojené státy americké

zeměpisná šířka: 39-04-14N, zeměpisná délka: 088-32-00W, výška: 179 m

Aktuální stav počasí

Zpráva byla vytvořena před 33 minutami, v 06:35 UTC
Východní vítr 11 kt
Teplota 1°C
Vlhkost vzduchu 51%
Tlak 1021 hPa
Viditelnost: 16.1 km
Zataženo ve výšce 6000 ft

METAR: K1H2 240635Z AUTO 09011KT 10SM OVC060 01/M08 A3014 RMK AO2 T00061083

Čas: 01:08 (07:08 UTC)


TAF: chybějící

Stav a předpovědi počasí z více než 4 000 letišť (zprávy METAR a TAF).

Červené a žluté tečky na mapě představují dostupné meteorologické stanice.

Když kurzor umístíte na tečku, zobrazí se název stanice.

Pak kliknutím zobrazíte stav a předpověď počasí.

Chcete-li změnit mapu, kliknutím na zelené tlačítko se znaménkem +mapu přiblížíte, kliknutím na zelené tlačítko se znaménkem – mapu oddálíte a kliknutím na zelené šipky přejdete na sousední mapy.


METAR-TAF: